Time;durP1;ratioP1;P1;durP2;ratioP2;P2;SDS_P1;SDS_P2;PMS_P1;PMS_P2;Temp;Humidity;BMP_temperature;BMP_pressure;BME280_temperature;BME280_humidity;BME280_pressure;Samples;Min_cycle;Max_cycle;Signal;HPM_P1;HPM_P2
2021/08/20 00:01:48;;;;;;;5.60;2.95;;;15.70;99.90;;;;;;4175335;28;20143;-62
2021/08/20 00:03:49;;;;;;;3.33;2.20;;;15.60;99.90;;;;;;4173589;28;20102;-63
2021/08/20 00:05:50;;;;;;;5.78;2.92;;;15.60;99.90;;;;;;4174966;28;20547;-62
2021/08/20 00:07:51;;;;;;;3.28;2.30;;;15.60;99.90;;;;;;4173653;28;20028;-62
2021/08/20 00:09:57;;;;;;;3.50;2.58;;;15.50;99.90;;;;;;4174388;28;20523;-63
2021/08/20 00:11:58;;;;;;;5.30;2.40;;;15.50;99.90;;;;;;4172718;28;20048;-62
2021/08/20 00:13:59;;;;;;;5.13;2.50;;;15.50;99.90;;;;;;4175766;28;20021;-62
2021/08/20 00:16:01;;;;;;;4.75;2.38;;;15.50;99.90;;;;;;4172974;28;20037;-63
2021/08/20 00:18:02;;;;;;;3.92;2.60;;;15.40;99.90;;;;;;4174232;28;20389;-62
2021/08/20 00:20:04;;;;;;;5.60;2.80;;;15.40;99.90;;;;;;4173623;28;20098;-63
2021/08/20 00:22:06;;;;;;;4.22;2.75;;;15.40;99.90;;;;;;4174220;28;20094;-62
2021/08/20 00:24:07;;;;;;;3.08;2.47;;;15.40;99.90;;;;;;4174115;28;20033;-63
2021/08/20 00:26:08;;;;;;;3.55;2.53;;;15.40;99.90;;;;;;4172958;28;20036;-63
2021/08/20 00:28:10;;;;;;;2.75;2.22;;;15.30;99.90;;;;;;4174744;28;20037;-62
2021/08/20 00:30:11;;;;;;;4.18;2.83;;;15.30;99.90;;;;;;4171992;28;20037;-63
2021/08/20 00:32:13;;;;;;;4.93;2.75;;;15.30;99.90;;;;;;4174653;28;20106;-62
2021/08/20 00:34:14;;;;;;;4.65;2.40;;;15.30;99.90;;;;;;4172945;28;20179;-62
2021/08/20 00:36:15;;;;;;;3.78;2.70;;;15.20;99.90;;;;;;4173346;28;20799;-62
2021/08/20 00:38:16;;;;;;;4.38;2.83;;;15.20;99.90;;;;;;4172727;28;20049;-61
2021/08/20 00:40:17;;;;;;;3.38;2.40;;;15.20;99.90;;;;;;4161577;28;20086;-63
2021/08/20 00:42:18;;;;;;;4.63;2.63;;;15.20;99.90;;;;;;4172653;28;20045;-63
2021/08/20 00:44:21;;;;;;;6.60;2.53;;;15.10;99.90;;;;;;4174858;28;20036;-63
2021/08/20 00:46:22;;;;;;;4.97;2.45;;;15.10;99.90;;;;;;4173061;28;20114;-63
2021/08/20 00:48:24;;;;;;;3.58;2.55;;;15.10;99.90;;;;;;4173787;28;20090;-62
2021/08/20 00:50:25;;;;;;;5.13;2.85;;;15.10;99.90;;;;;;4175833;28;20029;-62
2021/08/20 00:52:26;;;;;;;4.13;2.80;;;15.10;99.90;;;;;;4174007;28;20037;-63
2021/08/20 00:54:28;;;;;;;5.63;2.83;;;15.10;99.90;;;;;;4173738;28;20029;-63
2021/08/20 00:56:29;;;;;;;4.77;2.83;;;15.00;99.90;;;;;;4172776;28;20066;-63
2021/08/20 00:58:35;;;;;;;6.80;2.55;;;15.00;99.90;;;;;;4169832;28;20029;-62
2021/08/20 01:00:40;;;;;;;5.43;2.75;;;15.00;99.90;;;;;;4156170;28;20025;-62
2021/08/20 01:02:41;;;;;;;5.00;2.40;;;15.00;99.90;;;;;;4157440;28;20041;-63
2021/08/20 01:04:42;;;;;;;3.93;2.70;;;14.90;99.90;;;;;;4155972;28;20103;-63
2021/08/20 01:06:43;;;;;;;6.57;3.17;;;14.90;99.90;;;;;;4157144;28;20045;-63
2021/08/20 01:08:44;;;;;;;9.63;3.10;;;14.80;99.90;;;;;;4156391;28;20359;-62
2021/08/20 01:10:45;;;;;;;4.53;2.30;;;14.70;99.90;;;;;;4169381;28;20033;-63
2021/08/20 01:12:46;;;;;;;5.80;3.10;;;14.60;99.90;;;;;;4172327;28;20060;-63
2021/08/20 01:14:52;;;;;;;6.90;3.23;;;14.70;99.90;;;;;;4174031;28;20063;-62
2021/08/20 01:16:53;;;;;;;3.90;2.60;;;14.60;99.90;;;;;;4171871;28;20099;-62
2021/08/20 01:18:54;;;;;;;5.47;2.43;;;14.60;99.90;;;;;;4174037;28;20033;-63
2021/08/20 01:20:57;;;;;;;6.37;3.20;;;14.60;99.90;;;;;;4171765;28;20091;-63
2021/08/20 01:22:59;;;;;;;6.33;2.83;;;14.50;99.90;;;;;;4173160;28;20432;-63
2021/08/20 01:25:01;;;;;;;4.20;2.70;;;14.50;99.90;;;;;;4172675;28;20032;-62
2021/08/20 01:27:03;;;;;;;6.10;3.33;;;14.50;99.90;;;;;;4172298;28;20547;-62
2021/08/20 01:29:04;;;;;;;6.83;2.57;;;14.50;99.90;;;;;;4172706;28;20159;-63
2021/08/20 01:31:10;;;;;;;6.47;2.83;;;14.50;99.90;;;;;;4172407;28;20044;-64
2021/08/20 01:33:11;;;;;;;4.40;2.90;;;14.50;99.90;;;;;;4173336;28;20041;-63
2021/08/20 01:35:13;;;;;;;4.00;2.70;;;14.50;99.90;;;;;;4172232;28;20071;-63
2021/08/20 01:37:14;;;;;;;5.13;2.80;;;14.40;99.90;;;;;;4173363;28;20074;-61
2021/08/20 01:39:15;;;;;;;7.67;3.37;;;14.40;99.90;;;;;;4171829;28;20036;-63
2021/08/20 01:41:17;;;;;;;4.57;2.80;;;14.40;99.90;;;;;;4173899;28;20041;-63
2021/08/20 01:43:21;;;;;;;6.97;2.90;;;14.40;99.90;;;;;;4171466;28;20095;-63
2021/08/20 01:45:23;;;;;;;7.40;2.70;;;14.30;99.90;;;;;;4174097;28;20091;-63
2021/08/20 01:47:24;;;;;;;6.83;2.67;;;14.30;99.90;;;;;;4171615;28;20071;-62
2021/08/20 01:49:25;;;;;;;3.63;2.80;;;14.30;99.90;;;;;;4173649;28;20090;-62
2021/08/20 01:51:31;;;;;;;4.37;2.67;;;14.40;99.90;;;;;;4172114;28;20033;-63
2021/08/20 01:53:32;;;;;;;4.90;2.70;;;14.40;99.90;;;;;;4173480;28;20045;-63
2021/08/20 01:55:34;;;;;;;6.20;3.13;;;14.40;99.90;;;;;;4169648;28;20713;-62
2021/08/20 01:57:36;;;;;;;3.93;2.80;;;14.30;99.90;;;;;;4157072;28;20757;-62
2021/08/20 01:59:38;;;;;;;9.97;3.53;;;14.30;99.90;;;;;;4155558;28;20029;-63
2021/08/20 02:01:39;;;;;;;7.93;3.57;;;14.20;99.90;;;;;;4169110;28;20083;-63
2021/08/20 02:03:40;;;;;;;5.40;3.07;;;14.20;99.90;;;;;;4172398;28;20041;-63
2021/08/20 02:05:41;;;;;;;4.37;2.80;;;14.20;99.90;;;;;;4171986;28;20920;-63
2021/08/20 02:07:44;;;;;;;6.23;2.70;;;14.10;99.90;;;;;;4172441;28;20049;-62
2021/08/20 02:09:47;;;;;;;12.53;4.40;;;14.20;99.90;;;;;;4170360;28;20103;-64
2021/08/20 02:11:50;;;;;;;5.07;3.50;;;14.20;99.90;;;;;;4173686;28;20944;-63
2021/08/20 02:13:51;;;;;;;5.97;3.13;;;14.10;99.90;;;;;;4171498;28;20052;-62
2021/08/20 02:15:53;;;;;;;7.63;3.23;;;14.10;99.90;;;;;;4173758;28;20086;-63
2021/08/20 02:17:54;;;;;;;7.23;2.90;;;14.10;99.90;;;;;;4171290;28;20063;-57
2021/08/20 02:19:55;;;;;;;9.47;3.80;;;14.00;99.90;;;;;;4172573;28;20086;-62
2021/08/20 02:21:56;;;;;;;7.10;2.97;;;14.00;99.90;;;;;;4171674;28;20038;-62
2021/08/20 02:23:57;;;;;;;8.13;3.63;;;13.90;99.90;;;;;;4173350;28;20067;-62
2021/08/20 02:25:59;;;;;;;5.07;3.03;;;13.90;99.90;;;;;;4171922;28;20037;-63
2021/08/20 02:28:00;;;;;;;6.53;3.07;;;13.80;99.90;;;;;;4172636;28;20045;-63
2021/08/20 02:30:01;;;;;;;5.43;3.00;;;13.80;99.90;;;;;;4172187;28;20102;-63
2021/08/20 02:32:02;;;;;;;5.93;3.30;;;13.70;99.90;;;;;;4172426;28;20033;-63
2021/08/20 02:34:04;;;;;;;5.23;3.10;;;13.60;99.90;;;;;;4172315;28;20065;-62
2021/08/20 02:36:06;;;;;;;5.27;3.60;;;13.60;99.90;;;;;;4170390;28;20041;-64
2021/08/20 02:38:07;;;;;;;5.03;2.83;;;13.50;99.90;;;;;;4173078;28;20070;-62
2021/08/20 02:40:09;;;;;;;6.83;3.37;;;13.50;99.90;;;;;;4171518;28;20033;-61
2021/08/20 02:42:10;;;;;;;4.80;3.23;;;13.50;99.90;;;;;;4173284;28;20037;-63
2021/08/20 02:44:11;;;;;;;7.93;3.13;;;13.40;99.90;;;;;;4172073;28;20063;-63
2021/08/20 02:46:12;;;;;;;9.27;3.00;;;13.40;99.90;;;;;;4172980;28;20075;-63
2021/08/20 02:48:13;;;;;;;4.80;3.40;;;13.40;99.90;;;;;;4171399;28;20432;-61
2021/08/20 02:50:15;;;;;;;10.03;3.27;;;13.40;99.90;;;;;;4172817;28;20095;-62
2021/08/20 02:52:16;;;;;;;6.67;3.50;;;13.40;99.90;;;;;;4171136;28;20570;-63
2021/08/20 02:54:17;;;;;;;6.67;3.13;;;13.40;99.90;;;;;;4175471;28;20087;-62
2021/08/20 02:56:19;;;;;;;8.60;4.47;;;13.40;99.90;;;;;;4174277;28;20043;-63
2021/08/20 02:58:20;;;;;;;12.73;3.53;;;13.40;99.90;;;;;;4175652;28;20452;-63
2021/08/20 03:00:21;;;;;;;6.17;3.23;;;13.40;99.90;;;;;;4174683;28;20775;-62
2021/08/20 03:02:24;;;;;;;7.33;3.17;;;13.40;99.90;;;;;;4175883;28;20424;-63
2021/08/20 03:04:25;;;;;;;5.43;3.37;;;13.40;99.90;;;;;;4174774;28;20052;-63
2021/08/20 03:06:27;;;;;;;5.57;3.10;;;13.30;99.90;;;;;;4175246;28;20741;-62
2021/08/20 03:08:28;;;;;;;5.93;3.10;;;13.30;99.90;;;;;;4174778;28;20025;-62
2021/08/20 03:10:29;;;;;;;5.90;2.70;;;13.30;99.90;;;;;;4174670;28;20809;-61
2021/08/20 03:12:31;;;;;;;6.37;2.93;;;13.30;99.90;;;;;;4175771;28;20079;-62
2021/08/20 03:14:33;;;;;;;6.07;2.87;;;13.20;99.90;;;;;;4174837;28;20033;-63
2021/08/20 03:16:34;;;;;;;7.77;2.83;;;13.20;99.90;;;;;;4173999;28;20029;-62
2021/08/20 03:18:35;;;;;;;6.63;3.20;;;13.10;99.90;;;;;;4173841;28;20094;-62
2021/08/20 03:20:36;;;;;;;8.77;3.63;;;13.10;99.90;;;;;;4175606;28;20025;-63
2021/08/20 03:22:37;;;;;;;6.90;3.40;;;13.10;99.90;;;;;;4173642;28;20547;-62
2021/08/20 03:24:38;;;;;;;9.77;3.07;;;13.10;99.90;;;;;;4175766;28;20021;-60
2021/08/20 03:26:39;;;;;;;7.07;3.27;;;13.10;99.90;;;;;;4174223;28;20079;-62
2021/08/20 03:28:41;;;;;;;5.27;3.00;;;13.00;99.90;;;;;;4175945;28;20055;-62
2021/08/20 03:30:42;;;;;;;4.00;2.90;;;13.10;99.90;;;;;;4173796;28;20463;-62
2021/08/20 03:32:43;;;;;;;8.20;3.40;;;13.10;99.90;;;;;;4174438;28;20075;-63
2021/08/20 03:34:44;;;;;;;10.47;3.53;;;13.10;99.90;;;;;;4174453;28;20037;-62
2021/08/20 03:36:45;;;;;;;8.00;3.40;;;13.00;99.90;;;;;;4174073;28;20095;-63
2021/08/20 03:38:46;;;;;;;6.73;3.40;;;13.00;99.90;;;;;;4174722;28;20055;-62
2021/08/20 03:40:49;;;;;;;8.50;3.10;;;13.00;99.90;;;;;;4174055;28;20418;-62
2021/08/20 03:42:52;;;;;;;6.83;3.43;;;13.00;99.90;;;;;;4174969;28;20530;-62
2021/08/20 03:44:53;;;;;;;7.10;3.90;;;13.00;99.90;;;;;;4173466;28;20444;-62
2021/08/20 03:46:54;;;;;;;8.07;3.20;;;13.00;99.90;;;;;;4175657;28;20029;-62
2021/08/20 03:48:55;;;;;;;6.03;3.20;;;13.10;99.90;;;;;;4172691;28;20370;-63
2021/08/20 03:50:56;;;;;;;8.27;3.30;;;13.30;99.90;;;;;;4175523;28;20763;-61
2021/08/20 03:52:58;;;;;;;9.67;4.20;;;13.60;99.90;;;;;;4173207;28;20037;-62
2021/08/20 03:54:59;;;;;;;12.00;3.43;;;13.80;99.90;;;;;;4174381;28;20382;-60
2021/08/20 03:57:00;;;;;;;5.47;3.33;;;14.10;99.90;;;;;;4173512;28;20082;-61
2021/08/20 03:59:01;;;;;;;8.73;3.17;;;14.40;99.90;;;;;;4175412;28;20082;-61
2021/08/20 04:01:06;;;;;;;11.17;3.10;;;14.70;99.90;;;;;;4173000;28;20029;-62
2021/08/20 04:03:07;;;;;;;10.37;3.70;;;15.10;99.90;;;;;;4174618;28;20481;-63
2021/08/20 04:05:09;;;;;;;13.73;3.67;;;15.30;99.90;;;;;;4172566;28;20110;-61
2021/08/20 04:07:10;;;;;;;11.17;3.73;;;15.60;99.90;;;;;;4163167;28;20037;-62
2021/08/20 04:09:11;;;;;;;9.67;3.50;;;16.00;99.90;;;;;;4172869;28;20091;-61
2021/08/20 04:11:13;;;;;;;9.80;3.30;;;16.30;99.90;;;;;;4173813;28;20513;-63
2021/08/20 04:13:14;;;;;;;9.23;3.37;;;16.70;99.90;;;;;;4174159;28;20032;-61
2021/08/20 04:15:15;;;;;;;9.40;3.40;;;17.00;99.90;;;;;;4173607;28;20037;-62
2021/08/20 04:17:17;;;;;;;7.20;3.63;;;17.20;99.90;;;;;;4174923;28;20067;-62
2021/08/20 04:19:18;;;;;;;9.38;4.10;;;17.50;99.90;;;;;;4172865;28;20567;-57
2021/08/20 04:21:20;;;;;;;11.70;4.35;;;17.90;99.90;;;;;;4174936;28;20086;-63
2021/08/20 04:23:21;;;;;;;8.10;3.90;;;18.20;99.90;;;;;;4172599;28;20025;-61
2021/08/20 04:25:22;;;;;;;9.55;3.47;;;18.60;99.90;;;;;;4174068;28;20052;-62
2021/08/20 04:27:24;;;;;;;12.63;3.72;;;19.00;99.90;;;;;;4172998;28;20025;-61
2021/08/20 04:29:25;;;;;;;5.50;2.90;;;19.20;99.90;;;;;;4173604;28;20864;-63
2021/08/20 04:31:26;;;;;;;9.20;3.60;;;19.30;99.90;;;;;;4173014;28;20041;-64
2021/08/20 04:33:28;;;;;;;7.28;3.67;;;19.60;99.80;;;;;;4174101;28;20378;-64
2021/08/20 04:35:29;;;;;;;5.72;3.00;;;19.80;99.40;;;;;;4172303;28;20037;-62
2021/08/20 04:37:30;;;;;;;10.50;4.03;;;20.10;99.00;;;;;;4173356;28;20041;-63
2021/08/20 04:39:32;;;;;;;9.07;2.60;;;20.40;98.60;;;;;;4173001;28;20045;-63
2021/08/20 04:41:33;;;;;;;10.30;3.28;;;20.80;98.00;;;;;;4173553;28;20067;-62
2021/08/20 04:43:37;;;;;;;7.82;3.35;;;21.00;97.30;;;;;;4173646;28;20029;-63
2021/08/20 04:45:38;;;;;;;9.77;4.20;;;21.30;97.00;;;;;;4173258;28;20086;-63
2021/08/20 04:47:39;;;;;;;13.82;4.45;;;21.70;96.30;;;;;;4173970;28;20067;-64
2021/08/20 04:49:40;;;;;;;9.73;3.70;;;22.10;95.60;;;;;;4171606;28;20908;-62
2021/08/20 04:51:42;;;;;;;6.13;3.05;;;22.30;94.90;;;;;;4174144;28;20564;-64
2021/08/20 04:53:43;;;;;;;5.57;2.67;;;22.60;94.30;;;;;;4172051;28;20919;-63
2021/08/20 04:55:44;;;;;;;6.72;2.33;;;22.70;93.80;;;;;;4174323;28;20591;-64
2021/08/20 04:57:45;;;;;;;2.30;1.95;;;22.80;93.30;;;;;;4171179;28;20146;-63
2021/08/20 04:59:46;;;;;;;3.78;2.53;;;22.90;92.70;;;;;;4174128;28;20037;-64
2021/08/20 05:01:47;;;;;;;4.75;2.75;;;22.90;92.30;;;;;;4148863;28;20107;-64
2021/08/20 05:03:49;;;;;;;5.20;2.40;;;22.80;92.10;;;;;;4157769;28;20463;-64
2021/08/20 05:05:51;;;;;;;3.75;2.30;;;22.90;91.90;;;;;;4170791;28;20024;-63
2021/08/20 05:07:52;;;;;;;4.93;2.20;;;23.30;91.40;;;;;;4170732;28;20040;-64
2021/08/20 05:09:53;;;;;;;6.72;3.55;;;23.70;91.20;;;;;;4171050;28;20497;-62
2021/08/20 05:11:55;;;;;;;8.73;3.10;;;24.10;90.40;;;;;;4165164;28;20041;-64
2021/08/20 05:13:56;;;;;;;9.00;2.75;;;24.50;89.70;;;;;;4172158;28;20052;-64
2021/08/20 05:15:57;;;;;;;10.27;3.75;;;25.10;88.00;;;;;;4171033;28;20025;-64
2021/08/20 05:17:58;;;;;;;8.45;3.35;;;25.30;86.90;;;;;;4173406;28;20036;-66
2021/08/20 05:19:59;;;;;;;7.18;2.47;;;25.00;86.20;;;;;;4171901;28;20029;-65
2021/08/20 05:22:00;;;;;;;9.10;5.18;;;24.40;85.90;;;;;;4173580;28;20527;-63
2021/08/20 05:24:02;;;;;;;10.77;4.55;;;23.70;87.10;;;;;;4171804;28;20440;-63
2021/08/20 05:26:03;;;;;;;10.02;4.90;;;22.80;89.00;;;;;;4173562;28;20700;-64
2021/08/20 05:28:04;;;;;;;30.65;6.65;;;21.90;90.40;;;;;;4171260;28;20087;-65
2021/08/20 05:30:06;;;;;;;18.65;6.72;;;21.10;91.40;;;;;;4173621;28;20037;-65
2021/08/20 05:32:07;;;;;;;12.95;5.50;;;20.80;92.10;;;;;;4172068;28;20017;-63
2021/08/20 05:34:08;;;;;;;13.18;6.38;;;20.00;92.90;;;;;;4172863;28;20844;-64
2021/08/20 05:36:10;;;;;;;17.95;5.50;;;19.50;93.70;;;;;;4171763;28;20021;-64
2021/08/20 05:38:11;;;;;;;12.30;5.05;;;19.30;94.20;;;;;;4172749;28;20021;-64
2021/08/20 05:40:12;;;;;;;9.65;5.28;;;19.30;94.30;;;;;;4171336;28;20090;-63
2021/08/20 05:42:13;;;;;;;16.50;5.35;;;19.20;94.30;;;;;;4172347;28;20102;-64
2021/08/20 05:44:15;;;;;;;11.80;4.88;;;19.50;94.10;;;;;;4172433;28;20044;-62
2021/08/20 05:46:16;;;;;;;12.60;4.75;;;19.90;93.70;;;;;;4172060;28;20110;-63
2021/08/20 05:48:17;;;;;;;9.27;4.85;;;19.80;93.60;;;;;;4173293;28;20033;-64
2021/08/20 05:50:18;;;;;;;11.82;5.15;;;19.90;93.40;;;;;;4170916;28;20916;-62
2021/08/20 05:52:19;;;;;;;8.65;4.47;;;20.30;93.30;;;;;;4172222;28;20502;-66
2021/08/20 05:54:20;;;;;;;6.57;4.35;;;20.30;92.90;;;;;;4171051;28;20048;-64
2021/08/20 05:56:21;;;;;;;8.95;4.95;;;20.40;92.80;;;;;;4173156;28;20025;-65
2021/08/20 05:58:23;;;;;;;6.32;4.53;;;20.10;93.10;;;;;;4172011;28;20859;-63
2021/08/20 06:00:24;;;;;;;10.63;4.15;;;20.10;93.30;;;;;;4173493;28;20835;-65
2021/08/20 06:02:25;;;;;;;14.82;4.70;;;19.90;93.40;;;;;;4171771;28;20939;-63
2021/08/20 06:04:27;;;;;;;11.23;4.65;;;20.00;93.50;;;;;;4173284;28;20037;-67
2021/08/20 06:06:28;;;;;;;14.48;5.45;;;20.30;93.00;;;;;;4171476;28;20029;-64
2021/08/20 06:08:29;;;;;;;8.70;5.07;;;20.60;92.60;;;;;;4172067;28;20087;-64
2021/08/20 06:10:31;;;;;;;11.27;4.50;;;20.70;92.30;;;;;;4171685;28;20075;-66
2021/08/20 06:12:32;;;;;;;9.93;4.80;;;21.00;92.00;;;;;;4172258;28;20033;-63
2021/08/20 06:14:34;;;;;;;9.13;4.80;;;21.00;91.90;;;;;;4172478;28;20049;-65
2021/08/20 06:16:35;;;;;;;7.25;4.70;;;21.10;91.60;;;;;;4171603;28;20040;-66
2021/08/20 06:18:36;;;;;;;12.20;5.75;;;20.90;91.70;;;;;;4172927;28;20373;-64
2021/08/20 06:20:37;;;;;;;10.00;5.50;;;20.80;91.80;;;;;;4170850;28;20074;-67
2021/08/20 06:22:38;;;;;;;13.95;5.07;;;20.70;92.00;;;;;;4172646;28;20061;-63
2021/08/20 06:24:40;;;;;;;13.27;4.85;;;20.50;92.10;;;;;;4170921;28;20040;-64
2021/08/20 06:26:41;;;;;;;12.27;4.85;;;20.20;92.30;;;;;;4172670;28;20041;-63
2021/08/20 06:28:42;;;;;;;9.32;4.63;;;20.50;92.40;;;;;;4172375;28;20045;-64
2021/08/20 06:30:46;;;;;;;9.25;4.78;;;21.20;91.90;;;;;;4176423;28;20032;-63
2021/08/20 06:32:47;;;;;;;8.88;4.32;;;21.40;91.50;;;;;;4174050;28;20354;-64
2021/08/20 06:34:48;;;;;;;8.75;3.90;;;21.40;91.50;;;;;;4176503;28;20041;-64
2021/08/20 06:36:49;;;;;;;8.50;4.43;;;21.00;91.70;;;;;;4173969;28;20374;-63
2021/08/20 06:38:51;;;;;;;15.93;5.68;;;21.00;91.90;;;;;;4175866;28;20025;-66
2021/08/20 06:40:52;;;;;;;8.75;4.03;;;20.90;91.90;;;;;;4174574;28;20020;-63
2021/08/20 06:42:53;;;;;;;9.07;4.53;;;21.10;91.80;;;;;;4175445;28;20756;-68
2021/08/20 06:44:54;;;;;;;12.48;5.00;;;21.30;91.50;;;;;;4175549;28;20029;-64
2021/08/20 06:46:55;;;;;;;14.27;4.75;;;21.30;91.50;;;;;;4174716;28;20428;-67
2021/08/20 06:48:56;;;;;;;8.63;3.78;;;21.10;91.70;;;;;;4175907;28;20040;-65
2021/08/20 06:50:57;;;;;;;8.90;4.55;;;20.90;92.00;;;;;;4174623;28;20029;-64
2021/08/20 06:52:59;;;;;;;5.95;4.25;;;20.70;92.20;;;;;;4175308;28;20756;-64
2021/08/20 06:55:00;;;;;;;10.77;4.10;;;20.50;92.20;;;;;;4173569;28;20044;-64
2021/08/20 06:57:01;;;;;;;11.13;5.38;;;20.70;92.20;;;;;;4176288;28;20086;-63
2021/08/20 06:59:02;;;;;;;9.75;4.95;;;20.70;92.10;;;;;;4173511;28;20079;-63
2021/08/20 07:01:03;;;;;;;7.88;4.40;;;20.40;92.50;;;;;;4175769;28;20045;-63
2021/08/20 07:03:04;;;;;;;4.22;3.05;;;20.50;92.20;;;;;;4174234;28;20029;-64
2021/08/20 07:05:06;;;;;;;6.53;3.30;;;20.60;91.80;;;;;;4175557;28;20033;-63
2021/08/20 07:07:07;;;;;;;5.97;3.25;;;20.80;91.60;;;;;;4174199;28;20032;-63
2021/08/20 07:09:08;;;;;;;5.38;3.50;;;21.20;91.50;;;;;;4175636;28;20029;-63
2021/08/20 07:11:09;;;;;;;5.80;2.47;;;21.00;91.20;;;;;;4173849;28;20493;-65
2021/08/20 07:13:11;;;;;;;3.67;2.80;;;21.00;90.80;;;;;;4175193;28;20033;-64
2021/08/20 07:15:12;;;;;;;7.13;4.10;;;21.20;90.80;;;;;;4175017;28;20095;-63
2021/08/20 07:17:13;;;;;;;9.88;3.47;;;21.20;90.70;;;;;;4174002;28;20071;-64
2021/08/20 07:19:15;;;;;;;6.65;3.25;;;21.00;91.10;;;;;;4174988;28;20143;-63
2021/08/20 07:21:16;;;;;;;7.57;3.72;;;20.90;91.50;;;;;;4173750;28;20025;-65
2021/08/20 07:23:17;;;;;;;6.95;3.42;;;21.10;91.30;;;;;;4175265;28;20102;-63
2021/08/20 07:25:18;;;;;;;7.07;3.97;;;21.10;91.10;;;;;;4173576;28;20086;-66
2021/08/20 07:27:20;;;;;;;8.07;3.30;;;21.10;91.30;;;;;;4175036;28;20079;-64
2021/08/20 07:29:21;;;;;;;7.20;3.30;;;21.00;91.30;;;;;;4173807;28;20025;-63
2021/08/20 07:31:22;;;;;;;6.93;3.03;;;21.10;91.20;;;;;;4175406;28;20033;-63
2021/08/20 07:33:24;;;;;;;7.55;3.08;;;21.10;91.10;;;;;;4173276;28;20037;-65
2021/08/20 07:35:25;;;;;;;4.97;2.90;;;21.00;91.10;;;;;;4173159;28;20075;-65
2021/08/20 07:37:26;;;;;;;4.32;2.72;;;20.80;91.20;;;;;;4170504;28;20095;-62
2021/08/20 07:39:29;;;;;;;5.18;2.38;;;20.70;91.30;;;;;;4173596;28;20507;-66
2021/08/20 07:41:30;;;;;;;4.28;2.25;;;20.80;91.00;;;;;;4172491;28;20118;-63
2021/08/20 07:43:31;;;;;;;7.03;3.00;;;20.90;90.70;;;;;;4172999;28;20036;-63
2021/08/20 07:45:32;;;;;;;7.35;2.97;;;21.00;90.50;;;;;;4173925;28;20009;-65
2021/08/20 07:47:46;;;;;;;4.55;2.97;;;21.00;90.70;;;;;;4172475;28;20420;-65
2021/08/20 07:49:47;;;;;;;8.93;2.85;;;21.10;90.80;;;;;;4173230;28;20167;-65
2021/08/20 07:51:48;;;;;;;5.07;2.90;;;21.10;90.70;;;;;;4172851;28;20029;-64
2021/08/20 07:53:49;;;;;;;6.55;2.85;;;21.30;90.60;;;;;;4173107;28;20087;-62
2021/08/20 07:55:50;;;;;;;9.10;3.55;;;21.30;90.60;;;;;;4172358;28;20091;-64
2021/08/20 07:57:54;;;;;;;5.90;2.83;;;21.40;90.40;;;;;;4173747;28;20036;-64
2021/08/20 07:59:55;;;;;;;5.95;3.30;;;21.60;90.30;;;;;;4171808;28;20048;-62
2021/08/20 08:01:56;;;;;;;9.55;3.22;;;21.90;90.10;;;;;;4174066;28;20049;-66
2021/08/20 08:03:57;;;;;;;10.07;3.60;;;22.00;89.50;;;;;;4172047;28;20021;-63
2021/08/20 08:05:58;;;;;;;6.80;2.72;;;21.90;89.40;;;;;;4172002;28;20075;-65
2021/08/20 08:08:00;;;;;;;6.28;2.70;;;21.80;88.90;;;;;;4172040;28;20500;-63
2021/08/20 08:10:01;;;;;;;8.95;2.95;;;21.50;87.90;;;;;;4174062;28;20396;-65
2021/08/20 08:12:03;;;;;;;10.38;3.70;;;21.60;88.30;;;;;;4172374;28;20802;-62
2021/08/20 08:14:05;;;;;;;5.68;2.80;;;21.50;88.40;;;;;;4173162;28;20555;-65
2021/08/20 08:16:06;;;;;;;5.32;2.75;;;21.70;88.50;;;;;;4172741;28;20100;-62
2021/08/20 08:18:07;;;;;;;3.75;2.38;;;21.60;88.20;;;;;;4172881;28;20408;-62
2021/08/20 08:20:11;;;;;;;5.90;2.70;;;21.80;88.10;;;;;;4172283;28;20071;-62
2021/08/20 08:22:13;;;;;;;10.43;3.47;;;22.00;87.60;;;;;;4170537;28;20041;-62
2021/08/20 08:24:14;;;;;;;5.88;2.78;;;22.10;87.20;;;;;;4172206;28;20048;-63
2021/08/20 08:26:15;;;;;;;5.25;2.65;;;22.00;87.70;;;;;;4171335;28;20110;-62
2021/08/20 08:28:16;;;;;;;4.10;2.70;;;22.00;87.60;;;;;;4172969;28;20045;-61
2021/08/20 08:30:18;;;;;;;3.47;2.22;;;22.00;87.10;;;;;;4171916;28;20075;-62
2021/08/20 08:32:19;;;;;;;4.88;2.00;;;22.10;86.50;;;;;;4173368;28;20824;-62
2021/08/20 08:34:20;;;;;;;4.78;2.70;;;22.00;85.80;;;;;;3645717;28;15087256;-63
2021/08/20 08:36:21;;;;;;;3.60;2.50;;;22.10;86.50;;;;;;4174691;28;20118;-63
2021/08/20 08:38:23;;;;;;;4.18;2.38;;;22.30;86.50;;;;;;4172390;28;20074;-62
2021/08/20 08:40:24;;;;;;;6.57;3.03;;;22.20;86.10;;;;;;4174310;28;20025;-63
2021/08/20 08:42:25;;;;;;;2.10;1.90;;;22.10;86.50;;;;;;4172668;28;20025;-63
2021/08/20 08:44:27;;;;;;;7.30;2.30;;;21.90;85.90;;;;;;4173729;28;20482;-62
2021/08/20 08:46:36;;;;;;;4.10;2.05;;;21.80;86.20;;;;;;4172663;28;20067;-64
2021/08/20 08:48:39;;;;;;;5.18;2.38;;;22.00;86.00;;;;;;4173761;28;20095;-63
2021/08/20 08:50:45;;;;;;;5.45;2.10;;;22.20;85.30;;;;;;4171767;28;20044;-63
2021/08/20 08:52:47;;;;;;;6.85;2.13;;;22.30;83.90;;;;;;4172127;28;20045;-63
2021/08/20 08:54:48;;;;;;;3.95;2.55;;;22.40;83.60;;;;;;4172345;28;20044;-64
2021/08/20 08:56:49;;;;;;;2.83;1.88;;;22.40;83.90;;;;;;4172172;28;20114;-67
2021/08/20 08:58:50;;;;;;;4.50;2.20;;;22.30;83.40;;;;;;4173410;28;20508;-63
2021/08/20 09:00:51;;;;;;;4.97;2.90;;;22.20;82.10;;;;;;4172329;28;20773;-67
2021/08/20 09:02:52;;;;;;;8.27;2.78;;;22.40;82.80;;;;;;4173477;28;20094;-64
2021/08/20 09:04:55;;;;;;;5.00;3.38;;;22.40;82.70;;;;;;4171738;28;20444;-64
2021/08/20 09:06:56;;;;;;;8.98;3.78;;;22.50;83.00;;;;;;4174069;28;20448;-66
2021/08/20 09:09:08;;;;;;;7.45;4.28;;;22.60;83.70;;;;;;4171855;28;20102;-62
2021/08/20 09:11:13;;;;;;;7.28;3.92;;;22.50;85.50;;;;;;4173839;28;20032;-66
2021/08/20 09:13:14;;;;;;;4.97;2.97;;;22.60;85.10;;;;;;4171692;28;20505;-63
2021/08/20 09:15:17;;;;;;;6.97;3.10;;;22.50;84.80;;;;;;4173802;28;20091;-62
2021/08/20 09:17:32;;;;;;;4.13;2.70;;;22.80;85.00;;;;;;4172057;28;20033;-64
2021/08/20 09:19:33;;;;;;;4.28;2.40;;;23.00;83.70;;;;;;4172985;28;20053;-65
2021/08/20 09:21:34;;;;;;;6.95;2.60;;;23.00;83.70;;;;;;4171085;28;20083;-65
2021/08/20 09:23:38;;;;;;;4.07;2.28;;;23.00;83.10;;;;;;4173566;28;20040;-64
2021/08/20 09:25:44;;;;;;;3.72;2.65;;;23.00;82.90;;;;;;4171513;28;20086;-66
2021/08/20 09:27:45;;;;;;;4.03;1.92;;;23.10;82.60;;;;;;4172764;28;20037;-65
2021/08/20 09:30:13;;;;;;;3.50;1.98;;;23.20;82.10;;;;;;4171444;28;20458;-63
2021/08/20 09:32:14;;;;;;;3.30;1.90;;;23.30;80.20;;;;;;4172994;28;20029;-64
2021/08/20 09:34:16;;;;;;;4.88;2.35;;;23.40;81.80;;;;;;4170703;28;20063;-64
2021/08/20 09:36:22;;;;;;;3.67;1.98;;;23.30;81.40;;;;;;4173298;28;20114;-67
2021/08/20 09:38:24;;;;;;;3.42;1.95;;;23.30;79.80;;;;;;4171820;28;20029;-65
2021/08/20 09:40:25;;;;;;;3.67;1.85;;;23.20;80.50;;;;;;4173240;28;20526;-64
2021/08/20 09:42:27;;;;;;;2.47;1.80;;;23.10;80.30;;;;;;4171037;28;20495;-63
2021/08/20 09:44:29;;;;;;;6.32;2.50;;;23.20;80.20;;;;;;4171972;28;20432;-64
2021/08/20 09:46:45;;;;;;;2.30;1.90;;;23.30;81.00;;;;;;4171772;28;20041;-63
2021/08/20 09:48:59;;;;;;;2.75;2.15;;;23.30;80.60;;;;;;4171678;28;20045;-66
2021/08/20 09:51:01;;;;;;;4.38;2.90;;;23.30;80.80;;;;;;4171719;28;20113;-65
2021/08/20 09:53:11;;;;;;;3.00;1.88;;;23.30;81.40;;;;;;4170790;28;20107;-67
2021/08/20 09:55:13;;;;;;;5.15;2.05;;;23.30;81.10;;;;;;4171672;28;20056;-64
2021/08/20 09:57:15;;;;;;;5.55;2.17;;;23.40;81.50;;;;;;4171532;28;20048;-64
2021/08/20 09:59:17;;;;;;;3.33;1.80;;;23.40;80.70;;;;;;4172602;28;20114;-65
2021/08/20 10:01:18;;;;;;;4.75;2.22;;;23.40;80.70;;;;;;4171017;28;20029;-64
2021/08/20 10:03:19;;;;;;;3.25;2.08;;;23.50;80.90;;;;;;4172536;28;20727;-66
2021/08/20 10:05:20;;;;;;;4.30;2.15;;;23.50;81.20;;;;;;4171317;28;20103;-64
2021/08/20 10:07:25;;;;;;;5.95;2.45;;;23.50;81.10;;;;;;4172758;28;20147;-64
2021/08/20 10:09:29;;;;;;;3.22;2.10;;;23.60;80.90;;;;;;4171038;28;20021;-64
2021/08/20 10:11:33;;;;;;;4.28;2.63;;;23.70;81.10;;;;;;4172227;28;20511;-67
2021/08/20 10:13:36;;;;;;;8.68;3.08;;;23.90;80.80;;;;;;4171080;28;20486;-66
2021/08/20 10:15:37;;;;;;;4.93;2.00;;;23.90;80.70;;;;;;4172418;28;20053;-65
2021/08/20 10:17:39;;;;;;;4.65;2.17;;;23.90;80.90;;;;;;4169453;28;20110;-64
2021/08/20 10:19:45;;;;;;;4.82;2.17;;;23.90;81.20;;;;;;4172744;28;20099;-63
2021/08/20 10:21:46;;;;;;;5.05;2.25;;;23.90;80.60;;;;;;4171002;28;21021;-64
2021/08/20 10:23:49;;;;;;;4.50;1.65;;;23.90;80.60;;;;;;4172381;28;20134;-64
2021/08/20 10:25:54;;;;;;;3.35;2.00;;;23.90;80.10;;;;;;4169551;28;20096;-64
2021/08/20 10:27:56;;;;;;;7.05;2.72;;;23.70;80.50;;;;;;4172520;28;20108;-64
2021/08/20 10:29:57;;;;;;;5.13;2.88;;;23.30;80.80;;;;;;4172086;28;20079;-64
2021/08/20 10:32:02;;;;;;;6.00;2.50;;;23.40;81.30;;;;;;4172144;28;20025;-67
2021/08/20 10:34:31;;;;;;;4.93;1.65;;;23.50;81.10;;;;;;4171712;28;20382;-64